Weather observations for the past three days for
Guthrie, Guthrie Municipal Airport
Metric (Imperial)
Date Time (cdt) Wind (kph) Vis. (km) Weather Sky Cond. Temperature (ºC) Relative Humidity Wind Chill (°C) Heat Index (°C) Pressure Precipitation (cm)
Air Dwpt 6 hour altimeter (cm) sea level (mb) 1 hr 3 hr 6 hr
Max. Min.
06 08:53 NE 17 G 33 16.09 Fair CLR 10.6 4.4 66% 76.3 1017.3
06 07:53 NE 13 16.09 Mostly Cloudy BKN022 10 5.6 74% 8 76.3 1017.3
06 06:53 NE 15 G 31 16.09 Overcast FEW026 FEW032 OVC049 10 5.6 10.6 9.4 74% 8 76.2 1016.2
06 05:53 NE 11 16.09 Overcast OVC019 10 5.6 74% 9 76.2 1016.1
06 04:53 Vrbl 9 16.09 Overcast BKN024 BKN035 OVC049 10 5 71% 9 76.2 1015.9
06 03:53 N 11 16.09 Overcast OVC046 10 4.4 68% 9 76.12 1014.8
06 02:53 N 11 16.09 Overcast OVC044 10 3.9 66% 9 76.07 1014.1
06 01:53 NE 11 16.09 Overcast OVC044 10 3.3 63% 9 76.05 1013.7
06 00:53 NE 11 16.09 Overcast OVC040 10 3.9 11.1 10 66% 9 76.02 1013.5
05 23:53 NE 15 16.09 Overcast OVC037 10.6 3.9 64% 76.02 1013.4
05 22:53 NE 20 G 39 16.09 Overcast OVC037 10.6 3.3 61% 76 1013.1
05 21:53 NE 17 16.09 Overcast FEW026 OVC032 10.6 4.4 66% 75.97 1012.6
05 20:53 NE 13 16.09 Overcast OVC020 10.6 5.6 71% 75.95 1012.1
05 19:53 NE 17 G 33 16.09 Overcast BKN021 OVC026 10.6 6.1 74% 75.84 1010.8
05 18:53 NE 17 G 35 16.09 Overcast OVC021 11.1 6.1 13.3 11.1 72% 75.79 1010.4
05 17:53 NE 19 G 37 16.09 Overcast OVC022 11.7 5.6 66% 75.77 1009.8
05 16:53 NE 20 G 46 16.09 Overcast OVC023 12.2 5.6 64% 75.69 1008.6
05 15:53 NE 22 G 44 16.09 Overcast OVC024 12.8 5.6 62% 75.72 1009.0
05 14:53 NE 24 G 52 16.09 Overcast OVC021 12.8 6.1 64% 75.67 1008.2
05 13:53 NE 20 G 44 16.09 Overcast OVC016 12.8 7.2 69% 75.64 1007.9
05 12:53 NE 22 G 44 16.09 Overcast OVC016 13.3 8.3 20.6 13.3 72% 75.57 1006.8
05 11:53 NE 19 G 46 16.09 Overcast OVC015 13.9 8.9 72% 75.54 1006.5
05 10:53 NE 24 G 52 16.09 Overcast OVC012 13.9 9.4 74% 75.39 1004.5
05 09:53 N 19 G 46 16.09 Overcast OVC014 16.7 12.2 75% 75.29 1003.1
05 08:53 NE 15 16.09 Partly Cloudy SCT012 20.6 16.1 76% 75.18 1001.4
05 07:53 E 20 16.09 Fair CLR 19.4 16.1 81% 75.13 1000.6
05 06:53 E 19 G 33 16.09 Fair CLR 18.9 16.1 23.9 18.9 84% 75.06 999.9
05 05:53 NE 15 16.09 Fair CLR 20 16.1 78% 75.01 999.0
05 04:53 SE 9 16.09 Fair CLR 22.8 16.1 66% 74.93 997.6
05 03:53 S 24 G 39 16.09 Fair CLR 23.3 16.1 64% 74.88 997.1
05 02:53 S 24 G 37 16.09 Fair CLR 23.3 16.1 64% 74.9 997.5
05 01:53 S 20 16.09 Fair CLR 23.3 16.1 64% 74.98 998.3
05 00:53 S 24 G 41 16.09 Fair CLR 23.9 16.1 27.2 23.3 62% 25 75.01 998.7
04 23:53 S 28 G 43 16.09 Fair CLR 23.3 16.1 64% 75.06 999.4
04 22:53 S 35 G 48 16.09 Fair and Breezy CLR 24.4 16.1 60% 26 75.08 999.9
04 21:53 S 24 G 41 16.09 Fair CLR 25 16.1 58% 26 75.06 999.7
04 20:53 S 20 G 35 16.09 Fair CLR 25.6 16.1 56% 26 75.06 999.5
04 19:53 S 19 G 37 16.09 Fair CLR 26.1 15.6 52% 27 75.06 999.7
04 18:53 S 22 G 37 16.09 Fair CLR 27.2 15.6 29.4 27.2 49% 28 75.08 1000.1
04 17:53 S 30 G 56 16.09 Fair CLR 27.8 15 46% 28 75.13 1000.8
04 16:53 S 22 G 41 16.09 Fair CLR 28.9 14.4 41% 29 75.18 1001.2
04 15:53 S 31 G 50 16.09 Fair CLR 28.3 12.8 38% 28 75.23 1001.9
04 14:53 S 33 G 61 16.09 Fair and Breezy CLR 28.3 12.2 37% 28 75.29 1002.7
04 13:53 S 28 G 44 16.09 Fair CLR 28.9 12.2 36% 28 75.36 1003.6
04 12:53 S 37 G 52 16.09 Fair and Breezy CLR 27.8 11.1 27.8 17.8 35% 27 75.44 1004.6
04 11:53 SW 26 G 69 16.09 Fair CLR 26.1 10.6 38% 26 75.46 1005.0
04 10:53 S 35 G 52 16.09 Fair and Breezy CLR 24.4 9.4 39% 25 75.49 1005.5
04 09:53 S 28 G 48 16.09 Fair CLR 23.3 8.9 40% 75.54 1006.1
04 08:53 S 33 G 61 16.09 Fair and Breezy CLR 21.7 8.9 44% 75.57 1006.6
04 07:53 S 22 G 61 16.09 Fair CLR 20 8.3 47% 75.57 1006.6
04 06:53 S 19 16.09 Fair CLR 18.3 7.8 22.2 18.3 51% 75.57 1006.6
04 05:53 Calm 16.09 Fair CLR 19.4 6.7 44% 75.59 1006.9
04 04:53 S 33 G 57 16.09 Fair and Breezy CLR 20 6.1 40% 75.62 1007.0
04 03:53 S 26 G 61 16.09 Fair CLR 20.6 6.1 39% 75.64 1007.4
04 02:53 S 33 G 59 16.09 Fair and Breezy CLR 21.1 5.6 37% 75.69 1007.9
04 01:53 S 33 G 59 16.09 Fair and Breezy CLR 21.7 5 34% 75.74 1008.5
04 00:53 S 31 16.09 Fair CLR 22.2 5 28.3 22.2 33% 75.77 1009.1
03 23:53 S 31 G 57 16.09 Fair CLR 22.8 5 32% 75.79 1009.6
03 22:53 S 30 G 50 16.09 Fair CLR 23.3 4.4 29% 75.82 1009.9
03 21:53 S 26 G 46 16.09 Fair CLR 23.9 5 29% 25 75.84 1010.1
03 20:53 S 28 16.09 Fair CLR 24.4 3.9 26% 25 75.82 1010.0
03 19:53 S 33 G 44 16.09 Fair and Breezy CLR 26.7 2.8 21% 26 75.79 1009.8
03 18:53 S 37 G 56 16.09 Fair and Breezy CLR 28.3 2.8 30.6 28.3 19% 27 75.82 1010.2
03 17:53 S 30 G 48 16.09 Fair CLR 29.4 2.8 18% 28 75.84 1010.4
03 16:53 SW 28 G 50 16.09 Fair CLR 29.4 2.8 18% 28 75.9 1011.0
03 15:53 W 31 G 44 16.09 Fair CLR 30 2.8 18% 28 75.95 1011.7
03 14:53 SW 28 G 48 16.09 Fair CLR 30 2.8 18% 28 76.02 1012.8
03 13:53 SW 24 G 44 16.09 Fair CLR 30.6 2.8 17% 29 76.07 1013.4
03 12:53 SW 19 G 43 16.09 Fair CLR 29.4 4.4 29.4 12.8 20% 28 76.15 1014.6
03 11:53 S 19 16.09 Fair CLR 27.2 7.2 28% 26 76.25 1015.7
03 10:53 SW 17 16.09 Fair CLR 24.4 6.7 32% 25 76.25 1016.0
03 09:53 SW 19 G 31 16.09 Fair CLR 21.7 6.7 38% 76.28 1016.3
Date Time (cdt) Wind (kph) Vis. (km) Weather Sky Cond. Air Dwpt Max. Min. Relative Humidity Wind Chill (°C) Heat Index (°C) altimeter (cm) sea level (mb) 1 hr 3 hr 6 hr
6 hour
Temperature (ºC) Pressure Precipitation (cm)